Time;durP1;ratioP1;P1;durP2;ratioP2;P2;SDS_P1;SDS_P2;PMS_P1;PMS_P2;Temp;Humidity;BMP_temperature;BMP_pressure;BME280_temperature;BME280_humidity;BME280_pressure;Samples;Min_cycle;Max_cycle;Signal;HPM_P1;HPM_P2
2021/12/24 00:02:21;;;;;;;215.73;66.80;;;;;;;;;;5083968;28;20093;-67
2021/12/24 00:04:47;;;;;;;195.93;58.90;;;;;;;;;;5084353;28;20522;-67
2021/12/24 00:07:13;;;;;;;199.23;61.53;;;;;;;;;;5062729;28;20075;-67
2021/12/24 00:09:40;;;;;;;195.70;58.10;;;;;;;;;;5063428;28;20494;-67
2021/12/24 00:12:13;;;;;;;182.53;58.20;;;;;;;;;;5082803;28;20041;-66
2021/12/24 00:14:44;;;;;;;143.52;52.60;;;;;;;;;;5080171;28;20072;-67
2021/12/24 00:17:14;;;;;;;165.40;58.57;;;;;;;;;;5082715;28;20058;-67
2021/12/24 00:20:07;;;;;;;178.83;56.80;;;;;;;;;;5064838;28;20052;-67
2021/12/24 00:35:57;;;;;;;152.83;52.97;;;;;;;;;;5080588;28;20489;-66
2021/12/24 00:38:23;;;;;;;147.97;48.77;;;;;;;;;;5059338;28;20051;-67
2021/12/24 00:40:49;;;;;;;176.77;53.53;;;;;;;;;;5083159;28;20090;-67
2021/12/24 00:43:16;;;;;;;152.60;48.63;;;;;;;;;;5082470;28;20047;-66
2021/12/24 00:45:43;;;;;;;155.17;49.57;;;;;;;;;;5081894;28;20047;-66
2021/12/24 00:48:10;;;;;;;130.80;48.27;;;;;;;;;;5076998;28;20123;-67
2021/12/24 00:50:51;;;;;;;145.23;50.43;;;;;;;;;;5077450;28;20063;-67
2021/12/24 00:56:09;;;;;;;129.43;46.17;;;;;;;;;;5095359;28;20455;-66
2021/12/24 00:58:35;;;;;;;116.50;43.40;;;;;;;;;;5084126;28;20040;-67
2021/12/24 01:01:01;;;;;;;130.33;46.77;;;;;;;;;;5064294;28;20047;-67
2021/12/24 01:03:27;;;;;;;105.57;43.60;;;;;;;;;;5079966;28;20048;-66
2021/12/24 01:05:54;;;;;;;124.27;43.90;;;;;;;;;;5081656;28;20410;-67
2021/12/24 01:08:20;;;;;;;100.37;42.87;;;;;;;;;;5061691;28;20044;-66
2021/12/24 01:10:48;;;;;;;119.53;42.10;;;;;;;;;;5061118;28;20044;-67
2021/12/24 01:13:14;;;;;;;122.27;45.23;;;;;;;;;;5083206;28;20033;-67
2021/12/24 01:15:52;;;;;;;118.70;43.37;;;;;;;;;;5079275;28;20094;-66
2021/12/24 01:21:14;;;;;;;130.93;44.73;;;;;;;;;;5075667;28;20051;-66
2021/12/24 01:23:52;;;;;;;129.73;44.08;;;;;;;;;;5082619;28;20045;-67
2021/12/24 01:26:33;;;;;;;105.13;41.43;;;;;;;;;;5041399;28;20044;-66
2021/12/24 01:42:48;;;;;;;90.13;37.57;;;;;;;;;;5078207;28;20040;-67
2021/12/24 01:45:17;;;;;;;89.43;35.57;;;;;;;;;;5081074;28;20044;-67
2021/12/24 01:47:43;;;;;;;77.07;33.57;;;;;;;;;;5079492;28;20048;-67
2021/12/24 01:50:10;;;;;;;72.27;33.23;;;;;;;;;;5081502;28;20050;-68
2021/12/24 01:52:38;;;;;;;79.83;34.17;;;;;;;;;;5083248;28;20040;-67
2021/12/24 01:55:04;;;;;;;96.00;35.80;;;;;;;;;;5077986;28;20436;-67
2021/12/24 01:57:32;;;;;;;91.43;35.23;;;;;;;;;;5080146;28;20056;-67
2021/12/24 01:59:58;;;;;;;76.10;34.03;;;;;;;;;;5077544;28;20047;-67
2021/12/24 02:02:24;;;;;;;88.07;37.80;;;;;;;;;;5057664;28;20124;-67
2021/12/24 02:04:50;;;;;;;92.30;37.20;;;;;;;;;;5061834;28;20086;-67
2021/12/24 02:07:16;;;;;;;107.80;41.87;;;;;;;;;;5039946;28;20486;-67
2021/12/24 02:09:43;;;;;;;100.63;39.87;;;;;;;;;;5046367;28;20056;-67
2021/12/24 02:12:10;;;;;;;97.87;37.47;;;;;;;;;;5061329;28;20047;-67
2021/12/24 02:14:38;;;;;;;90.93;38.70;;;;;;;;;;5079766;28;20039;-66
2021/12/24 02:28:28;;;;;;;96.73;36.33;;;;;;;;;;5079719;28;20040;-67
2021/12/24 02:30:54;;;;;;;96.90;37.43;;;;;;;;;;5056060;28;20044;-66
2021/12/24 02:33:20;;;;;;;114.50;39.93;;;;;;;;;;5076162;28;20079;-67
2021/12/24 02:35:47;;;;;;;112.00;40.93;;;;;;;;;;5076410;28;20040;-66
2021/12/24 02:38:13;;;;;;;97.97;35.93;;;;;;;;;;5079282;28;20044;-67
2021/12/24 02:40:39;;;;;;;105.03;38.13;;;;;;;;;;5078161;28;20044;-67
2021/12/24 02:43:10;;;;;;;120.53;40.13;;;;;;;;;;5060791;28;20040;-66
2021/12/24 02:45:38;;;;;;;115.00;40.40;;;;;;;;;;5077846;28;20454;-67
2021/12/24 02:56:01;;;;;;;98.23;34.87;;;;;;;;;;5074437;28;20097;-66
2021/12/24 02:58:27;;;;;;;92.20;33.97;;;;;;;;;;5077483;28;20049;-66
2021/12/24 03:00:53;;;;;;;91.40;32.33;;;;;;;;;;5060639;28;20039;-67
2021/12/24 03:03:21;;;;;;;78.43;29.70;;;;;;;;;;5079849;28;20093;-66
2021/12/24 03:05:47;;;;;;;63.40;25.97;;;;;;;;;;5079420;28;20079;-66
2021/12/24 03:08:13;;;;;;;77.13;27.93;;;;;;;;;;5056393;28;20406;-66
2021/12/24 03:10:39;;;;;;;67.93;26.80;;;;;;;;;;5075652;28;20040;-67
2021/12/24 03:13:05;;;;;;;77.33;27.03;;;;;;;;;;5076483;28;20036;-66
2021/12/24 03:15:31;;;;;;;63.03;24.63;;;;;;;;;;5076672;28;20880;-67
2021/12/24 03:17:59;;;;;;;66.03;23.20;;;;;;;;;;5082178;28;20055;-67
2021/12/24 03:20:32;;;;;;;55.67;23.47;;;;;;;;;;5074813;28;20055;-67
2021/12/24 03:23:08;;;;;;;56.87;22.20;;;;;;;;;;5059182;28;20114;-66
2021/12/24 03:25:34;;;;;;;56.27;22.70;;;;;;;;;;5079591;28;20059;-67
2021/12/24 03:28:00;;;;;;;45.80;22.13;;;;;;;;;;5077558;28;20486;-67
2021/12/24 03:30:26;;;;;;;36.63;17.20;;;;;;;;;;5059077;28;20048;-67
2021/12/24 03:32:52;;;;;;;44.77;18.97;;;;;;;;;;5075678;28;20044;-67
2021/12/24 03:35:19;;;;;;;44.57;19.53;;;;;;;;;;5075753;28;20040;-67
2021/12/24 03:37:45;;;;;;;42.00;18.17;;;;;;;;;;5060232;28;20101;-67
2021/12/24 03:40:11;;;;;;;50.27;20.07;;;;;;;;;;5088708;28;20044;-66
2021/12/24 03:42:39;;;;;;;64.97;22.20;;;;;;;;;;5070091;28;20043;-67
2021/12/24 03:45:21;;;;;;;56.07;22.37;;;;;;;;;;5088444;28;20040;-67
2021/12/24 03:47:54;;;;;;;59.83;23.13;;;;;;;;;;5070256;28;20059;-67
2021/12/24 03:50:20;;;;;;;51.83;22.70;;;;;;;;;;5081260;28;20498;-67
2021/12/24 03:55:24;;;;;;;69.60;25.40;;;;;;;;;;5081320;28;20063;-67
2021/12/24 03:57:50;;;;;;;63.70;26.77;;;;;;;;;;5082827;28;20066;-67
2021/12/24 04:00:18;;;;;;;86.20;30.93;;;;;;;;;;5087435;28;20079;-66
2021/12/24 04:02:45;;;;;;;65.47;29.00;;;;;;;;;;5080110;28;20047;-67
2021/12/24 04:05:11;;;;;;;81.30;32.80;;;;;;;;;;5088579;28;20421;-68
2021/12/24 04:07:37;;;;;;;70.73;30.73;;;;;;;;;;5090963;28;20100;-66
2021/12/24 04:10:19;;;;;;;73.40;30.70;;;;;;;;;;5073824;28;20044;-67
2021/12/24 04:12:45;;;;;;;80.00;31.70;;;;;;;;;;5092136;28;20123;-67
2021/12/24 04:15:11;;;;;;;86.43;31.63;;;;;;;;;;5092104;28;20178;-67
2021/12/24 04:17:40;;;;;;;77.93;32.27;;;;;;;;;;5081136;28;20067;-66
2021/12/24 04:25:25;;;;;;;86.83;32.83;;;;;;;;;;5071423;28;20052;-66
2021/12/24 04:27:53;;;;;;;82.33;32.03;;;;;;;;;;5053317;28;20137;-67
2021/12/24 04:30:25;;;;;;;84.47;31.30;;;;;;;;;;5071061;28;20563;-66
2021/12/24 04:33:04;;;;;;;81.23;32.23;;;;;;;;;;5072212;28;20056;-66
2021/12/24 04:35:57;;;;;;;86.20;32.93;;;;;;;;;;5091338;28;20095;-66
2021/12/24 04:52:29;;;;;;;79.30;30.60;;;;;;;;;;5070923;28;20106;-66
2021/12/24 05:03:23;;;;;;;100.33;36.97;;;;;;;;;;5053928;28;20088;-67
2021/12/24 05:05:55;;;;;;;90.57;33.57;;;;;;;;;;5059974;28;20505;-66
2021/12/24 05:08:28;;;;;;;103.93;34.97;;;;;;;;;;5082044;28;20036;-66
2021/12/24 05:10:54;;;;;;;;;;;;;;;;;;5075013;28;20037;-66
2021/12/24 05:13:22;;;;;;;106.10;36.13;;;;;;;;;;5070824;28;19920;-66
2021/12/24 05:16:01;;;;;;;93.03;34.33;;;;;;;;;;5070357;28;20094;-67
2021/12/24 05:18:47;;;;;;;104.17;34.97;;;;;;;;;;5084093;28;20092;-67
2021/12/24 05:23:57;;;;;;;85.63;34.33;;;;;;;;;;5070145;28;20052;-66
2021/12/24 05:26:24;;;;;;;87.13;33.40;;;;;;;;;;5073958;28;20101;-66
2021/12/24 05:28:50;;;;;;;94.93;32.90;;;;;;;;;;5069726;28;20051;-66
2021/12/24 05:31:16;;;;;;;79.80;32.93;;;;;;;;;;5070245;28;20415;-67
2021/12/24 05:33:42;;;;;;;89.30;34.30;;;;;;;;;;5052311;28;20044;-67
2021/12/24 05:36:08;;;;;;;80.70;30.30;;;;;;;;;;5069563;28;20048;-67
2021/12/24 05:38:34;;;;;;;87.77;35.37;;;;;;;;;;5088961;28;20046;-66
2021/12/24 05:41:00;;;;;;;93.23;35.87;;;;;;;;;;5090462;28;20036;-66
2021/12/24 05:43:26;;;;;;;74.53;31.80;;;;;;;;;;5090323;28;20080;-66
2021/12/24 05:45:52;;;;;;;87.13;34.47;;;;;;;;;;5090158;28;20105;-67
2021/12/24 05:48:18;;;;;;;102.10;36.00;;;;;;;;;;5089815;28;20043;-66
2021/12/24 05:50:44;;;;;;;75.53;29.97;;;;;;;;;;5088126;28;20043;-66
2021/12/24 05:53:10;;;;;;;83.20;30.20;;;;;;;;;;5072726;28;20517;-66
2021/12/24 05:55:36;;;;;;;80.33;31.77;;;;;;;;;;5069502;28;20040;-66
2021/12/24 05:58:06;;;;;;;77.50;29.80;;;;;;;;;;5068825;28;20048;-66
2021/12/24 06:00:32;;;;;;;77.93;28.77;;;;;;;;;;5069858;28;20048;-67
2021/12/24 06:02:58;;;;;;;73.53;28.40;;;;;;;;;;5069430;28;20083;-66
2021/12/24 06:05:24;;;;;;;75.50;27.47;;;;;;;;;;5069619;28;20887;-66
2021/12/24 06:07:50;;;;;;;75.97;31.17;;;;;;;;;;5051541;28;20040;-66
2021/12/24 06:10:16;;;;;;;89.17;28.53;;;;;;;;;;5071859;28;20406;-66
2021/12/24 06:12:42;;;;;;;61.47;26.30;;;;;;;;;;5088635;28;20143;-66
2021/12/24 06:15:09;;;;;;;69.17;26.67;;;;;;;;;;5089926;28;20048;-66
2021/12/24 06:17:37;;;;;;;98.90;30.07;;;;;;;;;;5089272;28;20056;-66
2021/12/24 06:20:05;;;;;;;107.17;32.83;;;;;;;;;;5071363;28;20064;-66
2021/12/24 06:22:31;;;;;;;67.90;22.33;;;;;;;;;;5071186;28;20058;-67
2021/12/24 06:24:57;;;;;;;57.17;23.30;;;;;;;;;;5089097;28;20044;-67
2021/12/24 06:27:23;;;;;;;48.53;22.93;;;;;;;;;;5071518;28;20079;-67
2021/12/24 06:29:49;;;;;;;56.93;20.03;;;;;;;;;;5080988;28;20135;-66
2021/12/24 06:32:15;;;;;;;70.20;23.87;;;;;;;;;;5070914;28;20796;-66
2021/12/24 06:34:41;;;;;;;57.40;20.53;;;;;;;;;;5070670;28;20047;-66
2021/12/24 06:37:08;;;;;;;47.23;20.30;;;;;;;;;;5089431;28;20087;-67
2021/12/24 06:39:34;;;;;;;62.50;22.30;;;;;;;;;;5088291;28;20055;-67
2021/12/24 06:42:00;;;;;;;75.57;25.10;;;;;;;;;;5070922;28;20055;-67
2021/12/24 06:44:26;;;;;;;50.70;22.17;;;;;;;;;;5064137;28;20057;-66
2021/12/24 06:46:52;;;;;;;65.93;21.67;;;;;;;;;;5068585;28;20047;-66
2021/12/24 06:49:18;;;;;;;63.73;24.07;;;;;;;;;;5068373;28;20098;-66
2021/12/24 06:51:45;;;;;;;54.27;22.93;;;;;;;;;;5075880;28;20039;-66
2021/12/24 06:54:11;;;;;;;73.17;24.00;;;;;;;;;;5085352;28;20044;-67
2021/12/24 06:56:38;;;;;;;51.53;20.00;;;;;;;;;;5076294;28;20078;-67
2021/12/24 06:59:04;;;;;;;50.90;20.00;;;;;;;;;;5079135;28;20461;-66
2021/12/24 07:01:30;;;;;;;41.90;18.90;;;;;;;;;;5087499;28;20036;-67
2021/12/24 07:03:56;;;;;;;53.13;20.33;;;;;;;;;;5075620;28;20442;-66
2021/12/24 07:06:22;;;;;;;143.70;49.93;;;;;;;;;;5078129;28;20093;-66
2021/12/24 07:08:48;;;;;;;61.73;20.40;;;;;;;;;;5081278;28;20048;-67
2021/12/24 07:11:15;;;;;;;59.13;20.03;;;;;;;;;;5057514;28;20082;-67
2021/12/24 07:13:41;;;;;;;71.30;24.03;;;;;;;;;;5084180;28;20740;-67
2021/12/24 07:16:07;;;;;;;57.27;21.80;;;;;;;;;;5063778;28;20045;-67
2021/12/24 07:18:33;;;;;;;72.20;22.80;;;;;;;;;;5069946;28;20052;-67
2021/12/24 07:20:59;;;;;;;62.17;21.17;;;;;;;;;;5054075;28;20394;-67
2021/12/24 07:23:25;;;;;;;53.03;18.60;;;;;;;;;;5061653;28;20135;-67
2021/12/24 07:25:51;;;;;;;113.10;30.47;;;;;;;;;;5080468;28;20143;-67
2021/12/24 07:28:17;;;;;;;52.93;19.30;;;;;;;;;;5088111;28;20051;-67
2021/12/24 07:30:43;;;;;;;65.67;21.00;;;;;;;;;;5075444;28;20040;-68
2021/12/24 07:33:09;;;;;;;55.60;20.60;;;;;;;;;;5088554;28;20036;-67
2021/12/24 07:35:35;;;;;;;50.33;17.80;;;;;;;;;;5076853;28;20047;-66
2021/12/24 07:38:01;;;;;;;51.27;17.73;;;;;;;;;;5088107;28;20051;-66
2021/12/24 07:40:27;;;;;;;38.00;16.37;;;;;;;;;;5070605;28;20531;-66
2021/12/24 07:42:55;;;;;;;39.67;15.73;;;;;;;;;;5083893;28;20047;-67
2021/12/24 07:45:21;;;;;;;44.60;14.90;;;;;;;;;;5092477;28;20066;-66
2021/12/24 07:48:05;;;;;;;52.47;17.10;;;;;;;;;;5082762;28;20505;-66
2021/12/24 07:52:57;;;;;;;55.77;18.37;;;;;;;;;;5092027;28;20175;-66
2021/12/24 07:55:23;;;;;;;43.10;17.03;;;;;;;;;;5092389;28;20498;-67
2021/12/24 07:57:51;;;;;;;65.80;20.50;;;;;;;;;;5091561;28;20051;-67
2021/12/24 08:00:19;;;;;;;44.30;18.10;;;;;;;;;;5091476;28;20705;-67
2021/12/24 08:02:45;;;;;;;52.73;17.63;;;;;;;;;;5073796;28;20052;-67
2021/12/24 08:05:14;;;;;;;51.37;16.33;;;;;;;;;;5090878;28;20742;-66
2021/12/24 08:07:40;;;;;;;45.90;18.13;;;;;;;;;;5073771;28;20044;-66
2021/12/24 08:10:06;;;;;;;52.80;16.97;;;;;;;;;;5091975;28;20044;-67
2021/12/24 08:12:32;;;;;;;59.20;17.13;;;;;;;;;;5092076;28;20048;-67
2021/12/24 08:14:58;;;;;;;47.50;18.93;;;;;;;;;;5092133;28;20097;-67
2021/12/24 08:17:24;;;;;;;45.93;16.70;;;;;;;;;;5091026;28;20063;-66
2021/12/24 08:19:50;;;;;;;67.93;20.40;;;;;;;;;;5089172;28;20095;-67
2021/12/24 08:22:16;;;;;;;67.17;20.63;;;;;;;;;;5091334;28;20043;-67
2021/12/24 08:24:42;;;;;;;52.40;17.17;;;;;;;;;;5073372;28;20532;-67
2021/12/24 08:27:09;;;;;;;51.20;19.83;;;;;;;;;;5073512;28;20135;-66
2021/12/24 08:29:35;;;;;;;42.30;17.33;;;;;;;;;;5091114;28;20078;-66
2021/12/24 08:32:03;;;;;;;56.07;18.37;;;;;;;;;;5072612;28;20514;-66
2021/12/24 08:34:30;;;;;;;53.03;19.73;;;;;;;;;;5090503;28;20119;-66
2021/12/24 08:36:56;;;;;;;37.60;15.27;;;;;;;;;;5090901;28;20105;-67
2021/12/24 08:39:22;;;;;;;59.30;17.87;;;;;;;;;;5072183;28;20040;-67
2021/12/24 08:41:52;;;;;;;49.50;15.63;;;;;;;;;;5090876;28;20086;-66
2021/12/24 08:44:18;;;;;;;56.17;19.03;;;;;;;;;;5090658;28;20048;-67
2021/12/24 08:46:44;;;;;;;53.10;15.77;;;;;;;;;;5072503;28;20048;-67
2021/12/24 08:49:10;;;;;;;47.97;16.03;;;;;;;;;;5072499;28;20047;-66
2021/12/24 08:51:36;;;;;;;70.03;17.40;;;;;;;;;;5090591;28;20591;-67
2021/12/24 08:54:02;;;;;;;51.90;16.47;;;;;;;;;;5089410;28;20052;-67
2021/12/24 08:56:28;;;;;;;56.00;16.97;;;;;;;;;;5090425;28;20040;-67
2021/12/24 08:58:55;;;;;;;52.60;14.87;;;;;;;;;;5090388;28;20104;-67
2021/12/24 09:01:21;;;;;;;63.33;14.90;;;;;;;;;;5072043;28;20090;-67
2021/12/24 09:03:47;;;;;;;44.30;14.73;;;;;;;;;;5090386;28;20045;-67
2021/12/24 09:06:13;;;;;;;50.20;14.60;;;;;;;;;;5090385;28;20044;-66
2021/12/24 09:08:42;;;;;;;44.10;13.53;;;;;;;;;;5089818;28;20046;-66
2021/12/24 09:11:08;;;;;;;67.43;16.10;;;;;;;;;;5090349;28;20052;-67
2021/12/24 09:13:34;;;;;;;59.23;14.03;;;;;;;;;;5090093;28;20093;-66
2021/12/24 09:16:01;;;;;;;57.07;14.80;;;;;;;;;;5090227;28;20070;-66
2021/12/24 09:18:27;;;;;;;44.27;13.43;;;;;;;;;;5090183;28;20052;-66
2021/12/24 09:20:54;;;;;;;41.00;11.33;;;;;;;;;;5072127;28;20558;-66
2021/12/24 09:23:21;;;;;;;40.03;12.23;;;;;;;;;;5072004;28;20055;-67
2021/12/24 09:25:47;;;;;;;45.00;12.10;;;;;;;;;;5054723;28;20048;-66
2021/12/24 09:28:14;;;;;;;47.20;11.83;;;;;;;;;;5090231;28;20166;-66
2021/12/24 09:30:40;;;;;;;47.33;12.90;;;;;;;;;;5089905;28;20044;-67
2021/12/24 09:33:06;;;;;;;48.47;12.27;;;;;;;;;;5089761;28;20044;-66
2021/12/24 09:35:33;;;;;;;46.97;11.87;;;;;;;;;;5089839;28;20105;-67
2021/12/24 09:37:59;;;;;;;45.57;13.23;;;;;;;;;;5071735;28;20474;-67
2021/12/24 09:40:26;;;;;;;49.17;14.90;;;;;;;;;;5071240;28;20101;-67
2021/12/24 09:42:52;;;;;;;61.80;15.10;;;;;;;;;;5089807;28;20098;-66
2021/12/24 09:45:19;;;;;;;41.13;12.80;;;;;;;;;;5089516;28;20048;-66
2021/12/24 09:47:45;;;;;;;46.67;13.77;;;;;;;;;;5089505;28;20126;-67
2021/12/24 09:50:12;;;;;;;43.77;13.33;;;;;;;;;;5071328;28;20132;-67
2021/12/24 09:52:39;;;;;;;57.87;14.80;;;;;;;;;;5089148;28;20079;-66
2021/12/24 09:55:08;;;;;;;42.57;13.37;;;;;;;;;;5089379;28;20489;-66
2021/12/24 09:57:35;;;;;;;51.50;12.70;;;;;;;;;;5089228;28;20048;-67
2021/12/24 10:00:01;;;;;;;40.03;12.60;;;;;;;;;;5089598;28;20589;-66
2021/12/24 10:02:36;;;;;;;48.13;13.20;;;;;;;;;;5054994;28;20048;-67
2021/12/24 10:05:03;;;;;;;43.87;14.00;;;;;;;;;;5088464;28;20056;-67
2021/12/24 10:07:35;;;;;;;39.50;14.13;;;;;;;;;;5088844;28;20054;-67
2021/12/24 10:10:07;;;;;;;37.53;13.52;;;;;;;;;;5070393;28;20058;-66
2021/12/24 10:12:33;;;;;;;53.37;14.50;;;;;;;;;;5071494;28;20414;-67
2021/12/24 10:14:59;;;;;;;46.07;13.30;;;;;;;;;;5071070;28;20048;-66
2021/12/24 10:17:28;;;;;;;40.07;12.33;;;;;;;;;;5088688;28;20091;-66
2021/12/24 10:19:56;;;;;;;43.67;13.17;;;;;;;;;;5088878;28;20052;-66
2021/12/24 10:22:23;;;;;;;37.57;13.37;;;;;;;;;;5070592;28;20580;-67
2021/12/24 10:24:58;;;;;;;35.37;10.83;;;;;;;;;;5084843;28;20040;-66
2021/12/24 10:27:32;;;;;;;40.63;11.53;;;;;;;;;;5068713;28;20059;-67
2021/12/24 10:29:58;;;;;;;36.53;13.00;;;;;;;;;;5079706;28;20044;-67
2021/12/24 10:32:25;;;;;;;44.37;12.90;;;;;;;;;;5088409;28;20043;-67
2021/12/24 10:34:51;;;;;;;35.57;11.33;;;;;;;;;;5070908;28;20055;-67
2021/12/24 10:37:18;;;;;;;39.37;12.67;;;;;;;;;;5089049;28;20050;-67
2021/12/24 10:39:46;;;;;;;39.80;14.10;;;;;;;;;;5088761;28;20089;-67
2021/12/24 10:42:17;;;;;;;40.47;12.30;;;;;;;;;;5070760;28;20051;-66
2021/12/24 10:44:44;;;;;;;35.13;11.67;;;;;;;;;;5087598;28;20490;-66
2021/12/24 10:47:26;;;;;;;45.23;11.63;;;;;;;;;;5088549;28;20083;-67
2021/12/24 10:50:07;;;;;;;42.73;12.33;;;;;;;;;;5070038;28;20070;-68
2021/12/24 10:55:20;;;;;;;35.30;11.73;;;;;;;;;;5088421;28;20044;-67
2021/12/24 10:57:49;;;;;;;39.87;12.30;;;;;;;;;;5069828;28;20170;-67
2021/12/24 11:00:18;;;;;;;38.27;12.53;;;;;;;;;;5088158;28;20036;-66
2021/12/24 11:02:48;;;;;;;37.40;12.37;;;;;;;;;;5069536;28;20051;-68
2021/12/24 11:05:28;;;;;;;39.13;11.70;;;;;;;;;;5069808;28;20056;-67
2021/12/24 11:07:54;;;;;;;56.13;12.03;;;;;;;;;;5086621;28;20310;-66
2021/12/24 11:10:22;;;;;;;41.90;11.83;;;;;;;;;;5077712;28;20056;-67
2021/12/24 11:12:56;;;;;;;45.30;13.17;;;;;;;;;;5070208;28;20048;-67
2021/12/24 11:15:31;;;;;;;36.90;12.67;;;;;;;;;;5072315;28;20126;-66
2021/12/24 11:17:58;;;;;;;38.43;11.13;;;;;;;;;;5066546;28;20059;-67
2021/12/24 11:20:25;;;;;;;33.13;11.80;;;;;;;;;;5068698;28;20048;-67
2021/12/24 11:22:54;;;;;;;44.33;12.57;;;;;;;;;;5068708;28;20501;-66
2021/12/24 11:25:21;;;;;;;33.50;12.47;;;;;;;;;;5041341;28;20079;-67
2021/12/24 11:27:47;;;;;;;34.87;12.10;;;;;;;;;;5079474;28;20405;-66
2021/12/24 11:30:14;;;;;;;42.47;13.33;;;;;;;;;;5069740;28;20568;-67
2021/12/24 11:32:40;;;;;;;46.63;14.33;;;;;;;;;;5067567;28;20055;-67
2021/12/24 11:35:06;;;;;;;61.23;14.63;;;;;;;;;;5072526;28;20044;-67
2021/12/24 11:37:33;;;;;;;44.90;12.83;;;;;;;;;;5062309;28;20123;-67
2021/12/24 11:40:02;;;;;;;49.47;14.53;;;;;;;;;;5062605;28;20040;-67
2021/12/24 11:42:31;;;;;;;39.53;11.13;;;;;;;;;;5086187;28;20048;-67
2021/12/24 11:44:57;;;;;;;42.40;10.97;;;;;;;;;;5086353;28;20456;-68
2021/12/24 11:47:23;;;;;;;33.63;8.77;;;;;;;;;;5082279;28;20039;-67
2021/12/24 11:49:49;;;;;;;31.20;9.50;;;;;;;;;;5075093;28;21621;-67
2021/12/24 11:52:16;;;;;;;36.70;9.93;;;;;;;;;;5052816;28;20048;-67
2021/12/24 11:54:42;;;;;;;28.13;9.03;;;;;;;;;;5079090;28;20059;-67
2021/12/24 11:57:22;;;;;;;26.73;7.87;;;;;;;;;;5086973;28;20107;-68
2021/12/24 11:59:48;;;;;;;11.60;4.80;;;;;;;;;;5087042;28;20180;-67
2021/12/24 12:02:33;;;;;;;9.40;4.23;;;;;;;;;;5069011;28;20493;-67
2021/12/24 12:05:10;;;;;;;13.30;4.77;;;;;;;;;;5067698;28;20048;-67
2021/12/24 12:07:36;;;;;;;5.27;2.30;;;;;;;;;;5082478;28;20509;-67
2021/12/24 12:10:03;;;;;;;6.87;3.03;;;;;;;;;;5052451;28;20044;-67
2021/12/24 12:12:33;;;;;;;6.57;3.10;;;;;;;;;;5066325;28;20085;-67
2021/12/24 12:15:26;;;;;;;5.50;3.17;;;;;;;;;;5067678;28;20241;-67
2021/12/24 12:17:53;;;;;;;6.20;3.00;;;;;;;;;;5061635;28;20092;-67
2021/12/24 12:20:40;;;;;;;4.17;2.47;;;;;;;;;;5068412;28;20090;-67
2021/12/24 12:23:10;;;;;;;5.73;3.37;;;;;;;;;;5087749;28;20048;-67
2021/12/24 12:25:36;;;;;;;6.23;3.50;;;;;;;;;;5085138;28;20704;-67
2021/12/24 12:28:04;;;;;;;9.80;3.40;;;;;;;;;;5089135;28;20062;-67
2021/12/24 12:30:36;;;;;;;6.20;3.60;;;;;;;;;;5092969;28;20044;-67
2021/12/24 12:33:14;;;;;;;7.57;3.90;;;;;;;;;;5072524;28;21217;-67
2021/12/24 12:35:42;;;;;;;7.70;3.63;;;;;;;;;;5063615;28;20502;-66
2021/12/24 12:38:23;;;;;;;8.20;4.47;;;;;;;;;;5089965;28;20048;-67
2021/12/24 12:40:49;;;;;;;8.50;4.50;;;;;;;;;;5084614;28;20040;-67
2021/12/24 12:43:16;;;;;;;7.10;4.20;;;;;;;;;;5089259;28;20444;-67
2021/12/24 12:45:47;;;;;;;10.00;5.37;;;;;;;;;;5089498;28;20755;-67
2021/12/24 12:48:16;;;;;;;8.77;4.33;;;;;;;;;;5067102;28;20098;-67
2021/12/24 12:50:51;;;;;;;6.20;3.83;;;;;;;;;;5089972;28;20162;-67
2021/12/24 12:53:27;;;;;;;8.00;4.60;;;;;;;;;;5070476;28;20033;-67
2021/12/24 12:56:12;;;;;;;8.80;4.60;;;;;;;;;;5093269;28;20051;-67
2021/12/24 12:58:39;;;;;;;6.43;3.70;;;;;;;;;;5076827;28;20300;-66
2021/12/24 13:01:06;;;;;;;8.37;4.97;;;;;;;;;;5100789;28;20509;-67
2021/12/24 13:03:33;;;;;;;9.03;4.47;;;;;;;;;;5075690;28;20144;-67
2021/12/24 13:06:01;;;;;;;5.70;3.30;;;;;;;;;;5085488;28;20727;-66
2021/12/24 13:08:29;;;;;;;6.63;2.80;;;;;;;;;;5086927;28;20059;-67
2021/12/24 13:11:15;;;;;;;3.67;2.13;;;;;;;;;;5075221;28;20507;-67
2021/12/24 13:13:51;;;;;;;6.23;3.40;;;;;;;;;;5088277;28;20244;-66
2021/12/24 13:16:17;;;;;;;5.27;3.00;;;;;;;;;;5083763;28;20039;-67
2021/12/24 13:18:47;;;;;;;9.13;3.63;;;;;;;;;;5089472;28;20083;-67
2021/12/24 13:23:58;;;;;;;5.93;2.73;;;;;;;;;;5076465;28;20044;-67
2021/12/24 13:26:24;;;;;;;6.10;3.33;;;;;;;;;;5078402;28;20055;-67
2021/12/24 13:28:53;;;;;;;5.40;3.23;;;;;;;;;;5078555;28;20044;-67
2021/12/24 13:31:19;;;;;;;6.50;3.90;;;;;;;;;;5089818;28;20059;-67
2021/12/24 13:33:48;;;;;;;7.97;4.33;;;;;;;;;;5072182;28;20471;-67
2021/12/24 13:36:15;;;;;;;6.33;3.87;;;;;;;;;;5089610;28;20040;-67
2021/12/24 13:38:41;;;;;;;7.00;3.77;;;;;;;;;;5051611;28;20044;-67
2021/12/24 13:41:07;;;;;;;6.07;4.20;;;;;;;;;;5066069;28;20052;-67
2021/12/24 13:43:36;;;;;;;6.67;4.00;;;;;;;;;;5080434;28;20451;-67
2021/12/24 13:46:09;;;;;;;7.83;4.47;;;;;;;;;;5077923;28;20051;-67
2021/12/24 13:49:13;;;;;;;6.38;3.45;;;;;;;;;;5077926;28;20036;-68
2021/12/24 13:54:33;;;;;;;6.67;3.97;;;;;;;;;;5075835;28;20044;-67
2021/12/24 13:56:59;;;;;;;6.17;4.07;;;;;;;;;;5059383;28;20047;-68
2021/12/24 13:59:25;;;;;;;9.57;5.27;;;;;;;;;;5077998;28;20036;-68
2021/12/24 14:01:52;;;;;;;10.07;5.87;;;;;;;;;;5076724;28;20032;-67
2021/12/24 14:04:19;;;;;;;7.40;4.70;;;;;;;;;;5079319;28;20499;-67
2021/12/24 14:06:46;;;;;;;9.17;5.63;;;;;;;;;;5077864;28;20494;-67
2021/12/24 14:09:12;;;;;;;7.43;4.83;;;;;;;;;;5059985;28;20036;-67
2021/12/24 14:11:38;;;;;;;6.73;4.40;;;;;;;;;;5079140;28;20040;-67
2021/12/24 14:14:15;;;;;;;10.80;6.70;;;;;;;;;;5076535;28;20042;-67
2021/12/24 14:17:19;;;;;;;8.80;5.57;;;;;;;;;;5059611;28;20067;-66
2021/12/24 14:22:22;;;;;;;9.70;5.77;;;;;;;;;;5078804;28;20059;-67
2021/12/24 14:24:54;;;;;;;10.73;6.10;;;;;;;;;;5060311;28;20447;-67
2021/12/24 14:27:21;;;;;;;6.37;3.60;;;;;;;;;;5059336;28;20055;-67
2021/12/24 14:29:55;;;;;;;7.70;4.70;;;;;;;;;;5059420;28;20048;-67
2021/12/24 14:32:44;;;;;;;9.13;4.55;;;;;;;;;;5059205;28;20052;-67
2021/12/24 14:35:22;;;;;;;10.83;4.50;;;;;;;;;;5054254;28;20041;-67
2021/12/24 14:38:07;;;;;;;13.63;6.23;;;;;;;;;;5058984;28;20051;-67
2021/12/24 14:40:34;;;;;;;9.70;5.33;;;;;;;;;;5076360;28;20059;-67
2021/12/24 14:43:01;;;;;;;10.70;5.60;;;;;;;;;;5078405;28;20068;-67
2021/12/24 14:45:26;;;;;;;8.97;4.20;;;;;;;;;;5077785;28;20149;-67
2021/12/24 14:48:02;;;;;;;8.53;4.93;;;;;;;;;;5076783;28;20529;-67
2021/12/24 14:50:28;;;;;;;10.80;5.37;;;;;;;;;;5076034;28;20505;-67
2021/12/24 14:53:15;;;;;;;10.63;5.23;;;;;;;;;;5060592;28;20043;-67
2021/12/24 14:55:42;;;;;;;10.53;5.40;;;;;;;;;;5077312;28;20045;-67
2021/12/24 14:58:08;;;;;;;8.27;4.70;;;;;;;;;;5076760;28;20040;-67
2021/12/24 15:00:40;;;;;;;10.47;6.00;;;;;;;;;;5078356;28;20602;-67
2021/12/24 15:03:07;;;;;;;14.33;6.20;;;;;;;;;;5077980;28;20139;-68
2021/12/24 15:05:41;;;;;;;10.70;5.13;;;;;;;;;;5079513;28;20096;-68
2021/12/24 15:08:12;;;;;;;6.97;4.50;;;;;;;;;;5077324;28;20040;-68
2021/12/24 15:10:38;;;;;;;6.70;3.97;;;;;;;;;;5058547;28;20040;-68
2021/12/24 15:13:13;;;;;;;16.77;6.70;;;;;;;;;;5077335;28;20045;-67
2021/12/24 15:15:39;;;;;;;15.23;6.40;;;;;;;;;;5058477;28;20048;-68
2021/12/24 15:18:05;;;;;;;9.40;5.23;;;;;;;;;;5058879;28;20060;-68
2021/12/24 15:20:32;;;;;;;15.03;6.40;;;;;;;;;;5078038;28;20053;-68
2021/12/24 15:22:58;;;;;;;23.00;7.80;;;;;;;;;;5076243;28;20076;-68
2021/12/24 15:25:24;;;;;;;22.27;7.77;;;;;;;;;;5079105;28;20051;-67
2021/12/24 15:27:53;;;;;;;13.07;5.40;;;;;;;;;;5057377;28;20036;-67
2021/12/24 15:30:19;;;;;;;23.13;8.77;;;;;;;;;;5058362;28;20048;-68
2021/12/24 15:32:45;;;;;;;9.00;4.67;;;;;;;;;;5063824;28;20048;-67
2021/12/24 15:35:11;;;;;;;9.77;4.53;;;;;;;;;;5084916;28;20047;-67
2021/12/24 15:37:37;;;;;;;7.83;4.40;;;;;;;;;;5065268;28;20080;-67
2021/12/24 15:40:03;;;;;;;10.73;5.10;;;;;;;;;;5075183;28;20123;-67
2021/12/24 15:42:29;;;;;;;18.83;7.87;;;;;;;;;;5077683;28;20047;-67
2021/12/24 15:44:56;;;;;;;16.83;7.37;;;;;;;;;;5057988;28;20079;-67
2021/12/24 15:47:22;;;;;;;7.97;5.13;;;;;;;;;;5075081;28;20491;-67
2021/12/24 15:49:48;;;;;;;18.10;8.20;;;;;;;;;;5059906;28;20040;-67
2021/12/24 15:52:14;;;;;;;13.13;7.27;;;;;;;;;;5059891;28;20496;-67
2021/12/24 15:54:40;;;;;;;24.33;9.53;;;;;;;;;;5079413;28;20040;-67
2021/12/24 15:57:06;;;;;;;23.83;10.10;;;;;;;;;;5066260;28;20052;-67
2021/12/24 15:59:33;;;;;;;16.60;8.73;;;;;;;;;;5084498;28;20040;-67
2021/12/24 16:02:03;;;;;;;17.17;8.00;;;;;;;;;;5056986;28;20093;-67
2021/12/24 16:04:29;;;;;;;25.00;8.87;;;;;;;;;;5083990;28;20043;-67
2021/12/24 16:06:55;;;;;;;16.53;6.80;;;;;;;;;;5079887;28;20172;-67
2021/12/24 16:09:23;;;;;;;10.97;5.80;;;;;;;;;;5082861;28;20037;-67